createdAt,value
2022-10-31T00:03:55.561Z,4.90
2022-10-31T00:09:13.718Z,4.53
2022-10-31T00:14:31.386Z,4.57
2022-10-31T00:19:38.874Z,4.60
2022-10-31T00:24:50.232Z,5.07
2022-10-31T00:29:58.303Z,5.15
2022-10-31T00:35:11.345Z,4.93
2022-10-31T00:40:22.742Z,4.75
2022-10-31T00:45:38.745Z,5.20
2022-10-31T00:51:05.814Z,4.20
2022-10-31T00:56:15.525Z,4.78
2022-10-31T01:01:31.625Z,5.18
2022-10-31T01:12:10.262Z,4.80
2022-10-31T01:17:17.070Z,5.15
2022-10-31T01:22:21.970Z,5.20
2022-10-31T01:33:08.136Z,4.75
2022-10-31T01:38:17.141Z,5.38
2022-10-31T01:43:27.705Z,5.22
2022-10-31T01:48:43.293Z,4.63
2022-10-31T01:53:51.576Z,4.65
2022-10-31T01:59:15.687Z,4.82
2022-10-31T02:04:29.420Z,4.95
2022-10-31T02:09:39.648Z,5.10
2022-10-31T02:14:54.709Z,4.80
2022-10-31T02:20:14.504Z,4.95
2022-10-31T02:25:48.385Z,4.38
2022-10-31T02:31:18.874Z,4.75
2022-10-31T02:36:34.177Z,5.25
2022-10-31T02:41:54.575Z,4.50
2022-10-31T02:47:12.434Z,4.78
2022-10-31T02:52:20.572Z,4.75
2022-10-31T02:57:32.245Z,4.35
2022-10-31T03:02:56.244Z,4.60
2022-10-31T03:08:09.212Z,4.50
2022-10-31T03:13:19.672Z,4.95
2022-10-31T03:18:35.881Z,5.00
2022-10-31T03:23:47.744Z,4.72
2022-10-31T03:28:57.999Z,4.93
2022-10-31T03:34:09.762Z,4.47
2022-10-31T03:39:25.514Z,5.32
2022-10-31T03:44:33.404Z,5.80
2022-10-31T03:49:41.730Z,5.53
2022-10-31T03:54:48.516Z,5.45
2022-10-31T04:00:05.921Z,4.75
2022-10-31T04:05:12.949Z,5.22
2022-10-31T04:10:24.170Z,5.18
2022-10-31T04:15:34.876Z,5.35
2022-10-31T04:20:51.271Z,5.38
2022-10-31T04:25:58.051Z,5.03
2022-10-31T04:31:34.715Z,4.70
2022-10-31T04:36:54.425Z,5.32
2022-10-31T04:42:04.445Z,5.72
2022-10-31T04:52:45.862Z,5.50
2022-10-31T04:58:10.617Z,4.77
2022-10-31T05:03:27.079Z,4.75
2022-10-31T05:08:40.311Z,5.43
2022-10-31T05:14:03.450Z,5.30
2022-10-31T05:19:23.787Z,5.30
2022-10-31T05:24:32.928Z,5.27
2022-10-31T05:29:37.062Z,5.40
2022-10-31T05:34:43.777Z,5.57
2022-10-31T05:39:52.667Z,5.60
2022-10-31T05:44:56.615Z,5.37
2022-10-31T05:50:03.800Z,5.67
2022-10-31T05:55:18.411Z,5.27
2022-10-31T06:00:39.135Z,5.50
2022-10-31T06:05:44.080Z,5.43
2022-10-31T06:10:54.453Z,5.63
2022-10-31T06:16:03.274Z,5.57
2022-10-31T06:21:07.483Z,5.37
2022-10-31T06:26:14.038Z,5.70
2022-10-31T06:31:30.763Z,5.90
2022-10-31T06:36:39.353Z,6.70
2022-10-31T06:41:48.297Z,5.77
2022-10-31T06:46:53.447Z,5.93
2022-10-31T06:52:02.964Z,6.00
2022-10-31T06:57:15.522Z,5.77
2022-10-31T07:02:20.944Z,5.77
2022-10-31T07:07:25.692Z,6.13
2022-10-31T07:12:37.924Z,5.63
2022-10-31T07:17:45.403Z,5.37
2022-10-31T07:22:50.919Z,6.10
2022-10-31T07:27:59.525Z,5.95
2022-10-31T07:33:05.856Z,6.13
2022-10-31T07:38:14.398Z,4.93
2022-10-31T07:43:25.747Z,5.32
2022-10-31T07:48:36.147Z,5.82
2022-10-31T07:53:44.595Z,5.03
2022-10-31T07:59:07.065Z,5.72
2022-10-31T08:04:12.339Z,5.28
2022-10-31T08:09:24.891Z,5.32
2022-10-31T08:14:38.683Z,5.55
2022-10-31T08:19:43.664Z,5.50
2022-10-31T08:25:04.631Z,5.18
2022-10-31T08:30:22.081Z,4.70
2022-10-31T08:35:30.859Z,5.03
2022-10-31T08:40:41.741Z,5.50
2022-10-31T08:46:00.179Z,5.50
2022-10-31T08:51:07.650Z,5.93
2022-10-31T08:56:11.706Z,6.32
2022-10-31T09:01:25.337Z,7.03
2022-10-31T09:06:31.671Z,6.65
2022-10-31T09:11:36.117Z,7.03
2022-10-31T09:16:46.033Z,8.48
2022-10-31T09:21:52.396Z,7.85
2022-10-31T09:27:01.245Z,9.45
2022-10-31T09:32:11.962Z,9.55
2022-10-31T09:37:16.633Z,12.10
2022-10-31T09:42:40.248Z,13.02
2022-10-31T09:48:03.707Z,19.05
2022-10-31T09:53:13.978Z,22.58
2022-10-31T09:58:26.055Z,23.42
2022-10-31T10:03:38.415Z,23.30
2022-10-31T10:08:43.086Z,22.75
2022-10-31T10:14:07.947Z,21.63
2022-10-31T10:19:28.915Z,21.70
2022-10-31T10:24:54.954Z,20.38
2022-10-31T10:30:06.793Z,21.48
2022-10-31T10:35:23.287Z,20.50
2022-10-31T10:40:31.169Z,21.48
2022-10-31T10:45:53.599Z,21.92
2022-10-31T10:51:04.788Z,21.98
2022-10-31T10:56:24.747Z,21.55
2022-10-31T11:01:35.371Z,21.33
2022-10-31T11:06:57.394Z,21.70
2022-10-31T11:12:14.703Z,21.08
2022-10-31T11:17:30.601Z,22.27
2022-10-31T11:22:41.133Z,21.15
2022-10-31T11:28:04.123Z,21.08
2022-10-31T11:33:24.993Z,22.10
2022-10-31T11:38:41.452Z,20.63
2022-10-31T11:43:56.420Z,21.67
2022-10-31T11:49:10.859Z,21.08
2022-10-31T11:54:28.159Z,22.73
2022-10-31T11:59:33.767Z,22.05
2022-10-31T12:04:48.848Z,21.27
2022-10-31T12:09:55.339Z,21.85
2022-10-31T12:15:25.089Z,21.98
2022-10-31T12:20:48.940Z,21.02
2022-10-31T12:26:16.187Z,20.42
2022-10-31T12:31:44.288Z,21.92
2022-10-31T12:37:10.542Z,19.92
2022-10-31T12:42:36.547Z,18.95
2022-10-31T12:48:21.759Z,19.90
2022-10-31T12:53:44.359Z,21.63
2022-10-31T12:59:23.767Z,20.83
2022-10-31T13:04:38.959Z,20.65
2022-10-31T13:09:52.824Z,20.17
2022-10-31T13:15:08.166Z,20.13
2022-10-31T13:20:28.734Z,20.13
2022-10-31T13:31:11.664Z,20.10
2022-10-31T13:36:33.640Z,21.15
2022-10-31T13:41:49.946Z,21.67
2022-10-31T13:47:12.635Z,21.88
2022-10-31T13:52:30.418Z,20.20
2022-10-31T13:57:51.340Z,20.08
2022-10-31T14:03:05.969Z,20.00
2022-10-31T14:08:49.479Z,20.90
2022-10-31T14:14:01.142Z,15.82
2022-10-31T14:19:17.894Z,16.50
2022-10-31T14:24:40.869Z,15.90
2022-10-31T14:29:50.740Z,18.17
2022-10-31T14:35:03.549Z,20.48
2022-10-31T14:40:25.712Z,21.98
2022-10-31T14:45:45.811Z,22.50
2022-10-31T14:50:57.461Z,23.13
2022-10-31T14:56:16.343Z,22.80
2022-10-31T15:01:27.937Z,22.58
2022-10-31T15:06:51.953Z,23.52
2022-10-31T15:11:57.673Z,22.55
2022-10-31T15:17:10.913Z,22.30
2022-10-31T15:22:23.776Z,22.13
2022-10-31T15:27:44.790Z,22.33
2022-10-31T15:32:58.227Z,23.52
2022-10-31T15:38:05.536Z,21.88
2022-10-31T15:43:11.918Z,22.35
2022-10-31T15:48:22.216Z,21.85
2022-10-31T15:53:38.668Z,23.35
2022-10-31T15:58:46.820Z,24.60
2022-10-31T16:04:01.961Z,24.20
2022-10-31T16:09:29.073Z,23.38
2022-10-31T16:14:46.715Z,25.27
2022-10-31T16:19:58.901Z,27.65
2022-10-31T16:25:13.990Z,25.83
2022-10-31T16:30:47.742Z,25.13
2022-10-31T16:36:04.732Z,24.73
2022-10-31T16:41:25.056Z,25.15
2022-10-31T16:46:31.787Z,26.20
2022-10-31T16:51:46.268Z,24.67
2022-10-31T16:56:53.849Z,26.10
2022-10-31T17:02:04.816Z,26.80
2022-10-31T17:07:18.783Z,27.83
2022-10-31T17:12:35.438Z,25.52
2022-10-31T17:17:44.607Z,28.80
2022-10-31T17:22:51.014Z,30.70
2022-10-31T17:28:02.727Z,28.73
2022-10-31T17:33:07.964Z,27.48
2022-10-31T17:38:19.409Z,27.85
2022-10-31T17:43:29.601Z,28.40
2022-10-31T17:48:40.736Z,30.50
2022-10-31T17:53:45.861Z,29.30
2022-10-31T17:58:58.068Z,27.73
2022-10-31T18:04:05.927Z,29.10
2022-10-31T18:09:15.183Z,26.85
2022-10-31T18:14:23.241Z,28.88
2022-10-31T18:19:28.006Z,28.90
2022-10-31T18:24:42.620Z,29.35
2022-10-31T18:29:50.949Z,30.60
2022-10-31T18:35:01.937Z,28.20
2022-10-31T18:40:13.535Z,29.42
2022-10-31T18:45:46.577Z,29.10
2022-10-31T18:50:58.306Z,28.95
2022-10-31T18:56:10.074Z,28.67
2022-10-31T19:01:19.977Z,28.80
2022-10-31T19:06:29.207Z,29.45
2022-10-31T19:11:36.100Z,29.13
2022-10-31T19:16:43.218Z,28.98
2022-10-31T19:21:49.244Z,27.42
2022-10-31T19:27:05.966Z,28.83
2022-10-31T19:32:17.113Z,25.95
2022-10-31T19:37:33.456Z,25.35
2022-10-31T19:42:40.567Z,27.00
2022-10-31T19:47:55.707Z,24.67
2022-10-31T19:53:02.825Z,23.65
2022-10-31T19:58:16.254Z,21.63
2022-10-31T20:03:35.837Z,22.15
2022-10-31T20:08:46.119Z,21.52
2022-10-31T20:14:00.284Z,21.35
2022-10-31T20:19:09.868Z,22.27
2022-10-31T20:24:21.934Z,21.25
2022-10-31T20:29:33.774Z,21.50
2022-10-31T20:39:54.166Z,21.23
2022-10-31T20:45:05.069Z,21.17
2022-10-31T20:50:17.994Z,22.23
2022-10-31T20:55:33.953Z,20.85
2022-10-31T21:00:41.605Z,21.48
2022-10-31T21:06:02.426Z,21.10
2022-10-31T21:11:10.555Z,21.50
2022-10-31T21:16:36.817Z,20.45
2022-10-31T21:21:50.076Z,19.58
2022-10-31T21:26:55.579Z,19.10
2022-10-31T21:32:00.458Z,18.67
2022-10-31T21:37:06.764Z,18.27
2022-10-31T21:42:15.168Z,18.52
2022-10-31T21:47:31.468Z,18.05
2022-10-31T21:52:38.790Z,16.95
2022-10-31T21:57:44.031Z,17.85
2022-10-31T22:02:51.671Z,17.73
2022-10-31T22:07:58.482Z,17.13
2022-10-31T22:13:21.058Z,17.38
2022-10-31T22:18:37.863Z,16.88
2022-10-31T22:24:04.965Z,17.42
2022-10-31T22:29:17.326Z,17.48
2022-10-31T22:34:22.982Z,18.30
2022-10-31T22:39:54.999Z,17.45
2022-10-31T22:45:02.237Z,16.80
2022-10-31T22:50:13.159Z,17.98
2022-10-31T22:55:18.579Z,15.65
2022-10-31T23:00:26.900Z,16.30
2022-10-31T23:05:34.925Z,15.63
2022-10-31T23:10:44.878Z,16.55
2022-10-31T23:15:56.476Z,16.38
2022-10-31T23:21:31.022Z,17.30
2022-10-31T23:26:53.729Z,15.90
2022-10-31T23:32:16.936Z,16.02
2022-10-31T23:37:24.458Z,17.25
2022-10-31T23:42:31.265Z,16.90
2022-10-31T23:47:46.434Z,16.95
2022-10-31T23:52:52.060Z,16.45
2022-10-31T23:57:59.134Z,15.65
